Stella Polaris — PEBD — position and weather

sailwx.info

Track history (hours):
 
Tides and Currents Weather Stations Pressure Air Temp Water Temp Dewpoint Dewpoint Depression Visibility Wind Speed Wind Dir Waves Ship Positions

Stella Polaris

Last reported at 2015-Jun-28 13:22 UTC. Time now 2015-Jun-30 14:32 UTC.
Position N 58°43' W 004°20'.

Length 117 m; draft 7.8 m.

Type: Ship (hazmat cat A). MMSI: 245911000.

Date/timePositionNaut miles runAvg speedWind from/ knotsBaromVisibWave heightAir tempDewpointWater temp
2015-Jun-28 13:22N 58°43' W 004°20'1113.3
2015-Jun-28 12:33N 58°43' W 003°60'1413.5
2015-Jun-28 11:32N 58°43' W 003°33'1515.2
2015-Jun-28 10:33N 58°43' W 003°05'45012.8
2015-Jun-26 23:21N 57°41' E 011°01'3 3.6
2015-Jun-26 22:26N 57°37' E 011°02'0 0.0
2015-Jun-26 21:05N 57°37' E 011°02'0 0.0
2015-Jun-26 20:29N 57°37' E 011°02'0 0.0
2015-Jun-26 19:32N 57°37' E 011°02'0 0.0
2015-Jun-26 18:26N 57°37' E 011°02'0 0.0
2015-Jun-26 17:29N 57°37' E 011°02'8 8.3
2015-Jun-26 16:33N 57°33' E 011°14'1312.6
2015-Jun-26 15:33N 57°24' E 011°30'1312.8
2015-Jun-26 14:33N 57°12' E 011°38'1912.9
2015-Jun-26 13:04N 56°53' E 011°49'612.8
2015-Jun-26 12:33N 56°47' E 011°53'12212.1
2015-Jun-26 02:29N 54°51' E 010°53'1211.9
2015-Jun-26 01:31N 54°40' E 010°60'1212.7
2015-Jun-26 00:33N 54°34' E 011°18'1312.6
2015-Jun-25 23:34N 54°28' E 011°38'1312.4
2015-Jun-25 22:33N 54°26' E 011°59'11312.3
2015-Jun-25 13:23N 55°28' E 014°43'1312.3
2015-Jun-25 12:20N 55°35' E 015°03'1012.5
2015-Jun-25 11:33N 55°40' E 015°18'35112.6
2015-Jun-24 07:33N 59°38' E 023°21'1413.1
2015-Jun-24 06:28N 59°42' E 023°49'8012.8
2015-Jun-24 00:14N 60°09' E 026°18'912.7
2015-Jun-23 23:33N 60°16' E 026°28'1312.7
2015-Jun-23 22:33N 60°23' E 026°49'4 4.0
2015-Jun-23 21:32N 60°26' E 026°55'0 0.0
2015-Jun-23 20:32N 60°26' E 026°55'0 0.0
2015-Jun-23 19:32N 60°26' E 026°55'0 0.0
2015-Jun-23 19:05N 60°26' E 026°55'0 0.0
2015-Jun-22 19:33N 60°26' E 026°55'0 0.0
2015-Jun-22 18:33N 60°26' E 026°55'0 0.0
2015-Jun-22 17:33N 60°26' E 026°55'0 0.0
2015-Jun-22 16:33N 60°26' E 026°55'0 0.0
2015-Jun-22 15:33N 60°26' E 026°55'1 0.5
2015-Jun-22 14:33N 60°25' E 026°55'1413.6
2015-Jun-22 13:33N 60°18' E 026°33'1413.5
2015-Jun-22 12:32N 60°06' E 026°18'1413.3
2015-Jun-22 11:31N 59°55' E 026°03'4214.2
2015-Jun-22 08:32N 59°45' E 024°41'3214.4
2015-Jun-22 06:17N 59°36' E 023°40'6413.6
2015-Jun-22 01:33N 59°29' E 021°34'  
2015-Jun-19 08:12N 55°31' E 015°03'710.5
2015-Jun-19 07:32N 55°27' E 014°52'1010.2
2015-Jun-19 06:33N 55°22' E 014°37'1110.3
2015-Jun-19 05:32N 55°14' E 014°26'4410.0
2015-Jun-19 01:12N 55°12' E 013°10'710.4
2015-Jun-19 00:33N 55°13' E 012°58'1110.6
2015-Jun-18 23:33N 55°17' E 012°41'9 9.4
2015-Jun-18 22:34N 55°27' E 012°41'1111.2
2015-Jun-18 21:33N 55°36' E 012°52'1110.9
2015-Jun-18 20:33N 55°47' E 012°49'1413.5
2015-Jun-18 19:33N 55°59' E 012°41'1313.0
2015-Jun-18 18:33N 56°09' E 012°25'1111.0
2015-Jun-18 17:33N 56°15' E 012°09'19 9.3
2015-Jun-18 15:31N 56°33' E 011°57'1010.0
2015-Jun-18 14:33N 56°43' E 011°53'10 9.9
2015-Jun-18 13:33N 56°52' E 011°47'  
Track history (hours):
 
Tides and Currents Weather Stations Pressure Air Temp Water Temp Dewpoint Dewpoint Depression Visibility Wind Speed Wind Dir Waves Ship Positions

Stella Polaris

Last reported at 2015-Jun-28 13:22 UTC. Time now 2015-Jun-30 14:32 UTC.
Position N 58°43' W 004°20'.

Length 117 m; draft 7.8 m.

Type: Ship (hazmat cat A). MMSI: 245911000.

Date/timePositionNaut miles runAvg speedWind from/ knotsBaromVisibWave heightAir tempDewpointWater temp
2015-Jun-28 13:22N 58°43' W 004°20'1113.3
2015-Jun-28 12:33N 58°43' W 003°60'1413.5
2015-Jun-28 11:32N 58°43' W 003°33'1515.2
2015-Jun-28 10:33N 58°43' W 003°05'45012.8
2015-Jun-26 23:21N 57°41' E 011°01'3 3.6
2015-Jun-26 22:26N 57°37' E 011°02'0 0.0
2015-Jun-26 21:05N 57°37' E 011°02'0 0.0
2015-Jun-26 20:29N 57°37' E 011°02'0 0.0
2015-Jun-26 19:32N 57°37' E 011°02'0 0.0
2015-Jun-26 18:26N 57°37' E 011°02'0 0.0
2015-Jun-26 17:29N 57°37' E 011°02'8 8.3
2015-Jun-26 16:33N 57°33' E 011°14'1312.6
2015-Jun-26 15:33N 57°24' E 011°30'1312.8
2015-Jun-26 14:33N 57°12' E 011°38'1912.9
2015-Jun-26 13:04N 56°53' E 011°49'612.8
2015-Jun-26 12:33N 56°47' E 011°53'12212.1
2015-Jun-26 02:29N 54°51' E 010°53'1211.9
2015-Jun-26 01:31N 54°40' E 010°60'1212.7
2015-Jun-26 00:33N 54°34' E 011°18'1312.6
2015-Jun-25 23:34N 54°28' E 011°38'1312.4
2015-Jun-25 22:33N 54°26' E 011°59'11312.3
2015-Jun-25 13:23N 55°28' E 014°43'1312.3
2015-Jun-25 12:20N 55°35' E 015°03'1012.5
2015-Jun-25 11:33N 55°40' E 015°18'35112.6
2015-Jun-24 07:33N 59°38' E 023°21'1413.1
2015-Jun-24 06:28N 59°42' E 023°49'8012.8
2015-Jun-24 00:14N 60°09' E 026°18'912.7
2015-Jun-23 23:33N 60°16' E 026°28'1312.7
2015-Jun-23 22:33N 60°23' E 026°49'4 4.0
2015-Jun-23 21:32N 60°26' E 026°55'0 0.0
2015-Jun-23 20:32N 60°26' E 026°55'0 0.0
2015-Jun-23 19:32N 60°26' E 026°55'0 0.0
2015-Jun-23 19:05N 60°26' E 026°55'0 0.0
2015-Jun-22 19:33N 60°26' E 026°55'0 0.0
2015-Jun-22 18:33N 60°26' E 026°55'0 0.0
2015-Jun-22 17:33N 60°26' E 026°55'0 0.0
2015-Jun-22 16:33N 60°26' E 026°55'0 0.0
2015-Jun-22 15:33N 60°26' E 026°55'1 0.5
2015-Jun-22 14:33N 60°25' E 026°55'1413.6
2015-Jun-22 13:33N 60°18' E 026°33'1413.5
2015-Jun-22 12:32N 60°06' E 026°18'1413.3
2015-Jun-22 11:31N 59°55' E 026°03'4214.2
2015-Jun-22 08:32N 59°45' E 024°41'3214.4
2015-Jun-22 06:17N 59°36' E 023°40'6413.6
2015-Jun-22 01:33N 59°29' E 021°34'  
2015-Jun-19 08:12N 55°31' E 015°03'710.5
2015-Jun-19 07:32N 55°27' E 014°52'1010.2
2015-Jun-19 06:33N 55°22' E 014°37'1110.3
2015-Jun-19 05:32N 55°14' E 014°26'4410.0
2015-Jun-19 01:12N 55°12' E 013°10'710.4
2015-Jun-19 00:33N 55°13' E 012°58'1110.6
2015-Jun-18 23:33N 55°17' E 012°41'9 9.4
2015-Jun-18 22:34N 55°27' E 012°41'1111.2
2015-Jun-18 21:33N 55°36' E 012°52'1110.9
2015-Jun-18 20:33N 55°47' E 012°49'1413.5
2015-Jun-18 19:33N 55°59' E 012°41'1313.0
2015-Jun-18 18:33N 56°09' E 012°25'1111.0
2015-Jun-18 17:33N 56°15' E 012°09'19 9.3
2015-Jun-18 15:31N 56°33' E 011°57'1010.0
2015-Jun-18 14:33N 56°43' E 011°53'10 9.9
2015-Jun-18 13:33N 56°52' E 011°47'  

Dump ship's entire track history